Time;durP1;ratioP1;P1;durP2;ratioP2;P2;SDS_P1;SDS_P2;PMS_P1;PMS_P2;Temp;Humidity;BMP_temperature;BMP_pressure;BME280_temperature;BME280_humidity;BME280_pressure;Samples;Min_cycle;Max_cycle;Signal;HPM_P1;HPM_P2
2023/02/09 00:02:54;;;;;;;;;;;;;;;;;;;;;
2023/02/09 00:06:20;;;;;;;0.00;0.00;;;;;;;0.14;83.49;101717.91;4812434;29;20133;-76
2023/02/09 00:09:01;;;;;;;;;;;;;;;;;;;;;
2023/02/09 00:14:36;;;;;;;0.10;0.10;;;;;;;-0.18;83.64;101713.31;4904658;29;20064;-78
2023/02/09 00:31:32;;;;;;;0.00;0.00;;;;;;;-0.31;84.10;101676.13;4755161;30;20088;-76
2023/02/09 00:35:06;;;;;;;;;;;;;;;;;;;;;
2023/02/09 00:48:44;;;;;;;;;;;;;;;;;;;;;
2023/02/09 00:51:53;;;;;;;;;;;;;;;;;;;;;
2023/02/09 00:54:52;;;;;;;;;;;;;;;;;;;;;
2023/02/09 00:57:38;;;;;;;0.00;0.00;;;;;;;-0.22;86.74;101642.03;4702898;30;20049;-77
2023/02/09 01:01:15;;;;;;;;;;;;;;;;;;;;;
2023/02/09 01:17:57;;;;;;;0.10;0.10;;;;;;;0.08;88.49;101697.06;4794660;29;20032;-78
2023/02/09 01:20:43;;;;;;;;;;;;;;;;;;;;;
2023/02/09 01:23:38;;;;;;;0.00;0.00;;;;;;;-0.13;89.45;101640.22;4915272;29;20044;-76
2023/02/09 01:26:40;;;;;;;;;;;;;;;;;;;;;
2023/02/09 01:29:33;;;;;;;;;;;;;;;;;;;;;
2023/02/09 01:32:19;;;;;;;0.00;0.00;;;;;;;0.27;88.98;101701.28;4910855;29;20063;-76
2023/02/09 01:34:56;;;;;;;0.00;0.00;;;;;;;-0.05;89.58;101638.38;4888866;29;20052;-76
2023/02/09 01:37:29;;;;;;;0.05;0.05;;;;;;;0.23;89.39;101666.81;4902630;29;20036;-75
2023/02/09 01:40:18;;;;;;;0.10;0.10;;;;;;;0.00;89.78;101624.44;4890864;29;20041;-76
2023/02/09 01:42:54;;;;;;;0.00;0.00;;;;;;;0.19;90.52;101657.38;4883887;29;20040;-76
2023/02/09 01:45:28;;;;;;;0.00;0.00;;;;;;;0.32;89.96;101693.56;4883852;29;20028;-76
2023/02/09 01:48:13;;;;;;;;;;;;;;;;;;;;;
2023/02/09 01:50:40;;;;;;;;;;;;;;;0.21;90.69;101701.13;4913405;29;20087;-76
2023/02/09 01:53:29;;;;;;;0.10;0.10;;;;;;;-0.05;90.58;101669.81;4903432;29;20330;-75
2023/02/09 01:56:24;;;;;;;0.08;0.08;;;;;;;-0.21;90.80;101644.56;4907251;29;20064;-78
2023/02/09 01:58:52;;;;;;;0.00;0.00;;;;;;;-0.11;90.40;101665.09;4893798;29;20048;-77
2023/02/09 02:01:34;;;;;;;;;;;;;;;;;;;;;
2023/02/09 02:04:31;;;;;;;;;;;;;;;;;;;;;
2023/02/09 02:07:35;;;;;;;0.00;0.00;;;;;;;0.11;90.14;101701.28;4902978;29;20048;-77
2023/02/09 02:10:05;;;;;;;0.00;0.00;;;;;;;-0.17;89.54;101655.00;4907677;29;20054;-77
2023/02/09 02:13:04;;;;;;;0.00;0.00;;;;;;;0.01;89.85;101685.28;4914897;29;20059;-76
2023/02/09 02:26:47;;;;;;;0.00;0.00;;;;;;;-0.06;90.50;101706.63;4767473;26;20052;-80
2023/02/09 02:29:50;;;;;;;0.00;0.00;;;;;;;-0.13;89.83;101688.59;4947308;29;20034;-79
2023/02/09 02:32:33;;;;;;;0.00;0.00;;;;;;;-0.15;90.61;101680.69;4946524;29;20033;-78
2023/02/09 02:35:29;;;;;;;0.10;0.10;;;;;;;0.07;89.71;101708.81;4936590;29;20079;-77
2023/02/09 02:38:10;;;;;;;;;;;;;;;;;;;;;
2023/02/09 02:40:59;;;;;;;0.00;0.00;;;;;;;0.17;89.97;101722.97;4953859;29;20106;-76
2023/02/09 02:43:46;;;;;;;0.00;0.00;;;;;;;0.15;89.90;101708.84;4942231;29;20056;-78
2023/02/09 02:49:55;;;;;;;0.00;0.00;;;;;;;0.11;90.03;101699.41;4936635;29;20069;-76
2023/02/09 02:52:23;;;;;;;0.08;0.08;;;;;;;0.28;90.04;101707.53;4945054;29;20023;-75
2023/02/09 02:55:27;;;;;;;0.10;0.10;;;;;;;0.25;91.23;101681.78;4952752;29;20051;-74
2023/02/09 02:58:23;;;;;;;;;;;;;;;;;;;;;
2023/02/09 03:01:02;;;;;;;0.00;0.00;;;;;;;0.50;90.85;101690.72;4965932;29;20123;-73
2023/02/09 03:03:38;;;;;;;0.00;0.00;;;;;;;0.62;90.41;101687.69;4945415;29;20031;-75
2023/02/09 03:06:29;;;;;;;;;;;;;;;;;;;;;
2023/02/09 03:12:35;;;;;;;0.00;0.00;;;;;;;0.85;89.70;101685.97;4925164;29;20079;-74
2023/02/09 03:32:57;;;;;;;0.00;0.00;;;;;;;0.66;89.02;101683.66;4873137;29;20075;-75
2023/02/09 03:35:30;;;;;;;0.00;0.00;;;;;;;0.65;89.19;101700.81;4880198;29;20040;-74
2023/02/09 03:38:06;;;;;;;0.00;0.00;;;;;;;0.49;90.09;101694.41;4941221;29;20019;-74
2023/02/09 03:40:32;;;;;;;0.00;0.00;;;;;;;0.32;89.92;101665.81;4951018;29;20039;-75
2023/02/09 03:42:58;;;;;;;0.00;0.00;;;;;;;0.34;90.77;101679.94;4935821;29;20035;-75
2023/02/09 03:45:31;;;;;;;0.00;0.00;;;;;;;0.36;89.93;101698.63;4963933;29;20371;-74
2023/02/09 03:48:14;;;;;;;;;;;;;;;;;;;;;
2023/02/09 03:50:43;;;;;;;0.00;0.00;;;;;;;0.01;91.05;101649.47;4945293;29;20102;-74
2023/02/09 03:53:09;;;;;;;0.00;0.00;;;;;;;-0.03;90.59;101646.28;4967989;29;20026;-75
2023/02/09 03:55:45;;;;;;;0.05;0.05;;;;;;;0.01;91.13;101661.06;4949224;29;20007;-75
2023/02/09 03:58:22;;;;;;;0.00;0.00;;;;;;;0.07;91.48;101679.22;4966345;28;20015;-74
2023/02/09 04:00:50;;;;;;;0.00;0.00;;;;;;;0.00;91.50;101667.47;4965859;29;20090;-74
2023/02/09 04:03:19;;;;;;;0.00;0.00;;;;;;;0.02;91.36;101678.91;4932464;29;20055;-74
2023/02/09 04:05:47;;;;;;;0.10;0.10;;;;;;;0.06;90.96;101682.94;4944690;29;20031;-73
2023/02/09 04:08:16;;;;;;;0.00;0.00;;;;;;;0.11;90.73;101683.28;4967108;29;20031;-80
2023/02/09 04:10:41;;;;;;;0.00;0.00;;;;;;;0.29;92.05;101679.59;4920438;29;20099;-79
2023/02/09 04:13:07;;;;;;;0.10;0.10;;;;;;;0.46;91.78;101678.59;4937401;29;20035;-80
2023/02/09 04:15:33;;;;;;;0.00;0.00;;;;;;;0.41;90.54;101672.88;4944908;29;20031;-80
2023/02/09 04:18:06;;;;;;;0.10;0.10;;;;;;;0.29;90.78;101650.00;4935138;29;20031;-80
2023/02/09 04:21:21;;;;;;;0.00;0.00;;;;;;;0.57;91.68;101673.88;4934820;29;20058;-80
2023/02/09 04:24:15;;;;;;;0.00;0.00;;;;;;;0.79;91.35;101696.56;4944523;29;20024;-76
2023/02/09 04:26:52;;;;;;;;;;;;;;;;;;;;;
2023/02/09 04:36:26;;;;;;;0.00;0.00;;;;;;;1.12;90.07;101716.22;4826061;29;20079;-79
2023/02/09 04:38:55;;;;;;;0.00;0.00;;;;;;;1.02;90.88;101681.41;4820720;29;20038;-80
2023/02/09 04:41:31;;;;;;;0.00;0.00;;;;;;;1.03;90.21;101695.69;4821608;29;20027;-79
2023/02/09 04:44:28;;;;;;;0.00;0.00;;;;;;;1.24;90.48;101713.16;4804884;29;20049;-78
2023/02/09 04:46:54;;;;;;;0.00;0.00;;;;;;;1.46;89.79;101727.75;4802146;29;20043;-75
2023/02/09 04:49:45;;;;;;;0.00;0.00;;;;;;;1.63;89.79;101729.38;4818411;29;20102;-75
2023/02/09 04:52:17;;;;;;;0.10;0.10;;;;;;;1.52;89.13;101684.75;4811870;29;20048;-74
2023/02/09 04:54:59;;;;;;;0.00;0.00;;;;;;;1.88;88.09;101722.03;4830631;29;20030;-75
2023/02/09 05:00:19;;;;;;;0.10;0.10;;;;;;;2.10;87.62;101730.31;4894710;29;20506;-76
2023/02/09 05:02:47;;;;;;;0.05;0.05;;;;;;;2.11;87.01;101715.81;4871192;29;20021;-74
2023/02/09 05:05:23;;;;;;;;;;;;;;;;;;;;;
2023/02/09 05:08:11;;;;;;;0.00;0.00;;;;;;;2.26;86.58;101727.53;4915183;29;20445;-74
2023/02/09 05:11:33;;;;;;;0.00;0.00;;;;;;;2.22;86.64;101720.81;4892596;29;20115;-76
2023/02/09 05:14:01;;;;;;;0.08;0.08;;;;;;;2.33;86.45;101724.09;4911557;29;20377;-76
2023/02/09 05:16:47;;;;;;;0.00;0.00;;;;;;;2.27;86.46;101725.66;4910045;29;20075;-76
2023/02/09 05:20:15;;;;;;;0.00;0.00;;;;;;;2.35;86.40;101743.66;4896996;29;20099;-76
2023/02/09 05:23:24;;;;;;;;;;;;;;;;;;;;;
2023/02/09 05:29:41;;;;;;;0.10;0.10;;;;;;;2.42;85.64;101739.22;4901090;29;20054;-79
2023/02/09 05:43:40;;;;;;;;;;;;;;;;;;;;;
2023/02/09 05:53:13;;;;;;;0.00;0.00;;;;;;;2.89;84.65;101789.50;4669237;30;20053;-74
2023/02/09 06:02:47;;;;;;;0.00;0.00;;;;;;;2.96;84.53;101790.47;4625771;30;20626;-77
2023/02/09 06:05:15;;;;;;;0.00;0.00;;;;;;;3.02;84.63;101799.69;4821190;29;20037;-76
2023/02/09 06:08:10;;;;;;;0.00;0.00;;;;;;;2.92;84.28;101778.34;4915637;29;20036;-77
2023/02/09 06:10:43;;;;;;;0.00;0.00;;;;;;;3.16;84.39;101805.34;4917278;29;20056;-76
2023/02/09 06:13:11;;;;;;;0.10;0.10;;;;;;;3.16;83.74;101805.34;4926917;29;20039;-75
2023/02/09 06:16:06;;;;;;;0.00;0.00;;;;;;;3.08;83.66;101807.09;4911890;29;20043;-76
2023/02/09 06:18:45;;;;;;;;;;;;;;;;;;;;;
2023/02/09 06:21:22;;;;;;;0.00;0.00;;;;;;;2.70;83.85;101773.78;4945962;29;20115;-76
2023/02/09 06:23:57;;;;;;;0.00;0.00;;;;;;;2.86;83.26;101805.22;4939711;29;20024;-76
2023/02/09 06:26:42;;;;;;;;;;;;;;;;;;;;;
2023/02/09 06:29:10;;;;;;;0.00;0.00;;;;;;;2.67;82.81;101776.84;4938802;29;20115;-76
2023/02/09 06:31:36;;;;;;;0.00;0.00;;;;;;;2.68;82.92;101781.22;4919077;29;20035;-77
2023/02/09 06:34:04;;;;;;;0.05;0.05;;;;;;;2.79;83.20;101816.78;4923225;29;20027;-77
2023/02/09 06:36:47;;;;;;;0.10;0.10;;;;;;;2.60;82.45;101796.47;4915046;29;20031;-76
2023/02/09 06:39:23;;;;;;;0.00;0.00;;;;;;;2.57;82.11;101793.28;4928352;29;20083;-75
2023/02/09 06:41:48;;;;;;;0.00;0.00;;;;;;;2.49;82.29;101788.78;4915584;29;20343;-76
2023/02/09 06:44:14;;;;;;;0.00;0.00;;;;;;;2.34;82.76;101775.22;4914300;29;20119;-78
2023/02/09 06:46:39;;;;;;;0.00;0.00;;;;;;;2.33;82.87;101772.69;4924589;29;20640;-77
2023/02/09 06:49:05;;;;;;;0.00;0.00;;;;;;;2.42;82.98;101799.47;4908970;29;20066;-76
2023/02/09 06:51:30;;;;;;;0.00;0.00;;;;;;;2.32;82.90;101788.03;4909262;29;20107;-77
2023/02/09 06:53:56;;;;;;;0.00;0.00;;;;;;;2.49;83.17;101826.59;4924057;29;20067;-78
2023/02/09 06:56:23;;;;;;;0.10;0.10;;;;;;;2.55;82.79;101833.97;4911607;29;20406;-78
2023/02/09 06:58:49;;;;;;;0.00;0.00;;;;;;;2.65;82.83;101835.63;4911536;29;20039;-77
2023/02/09 07:01:15;;;;;;;0.00;0.00;;;;;;;2.74;82.81;101843.47;4943826;29;20059;-77
2023/02/09 07:03:41;;;;;;;0.00;0.00;;;;;;;2.79;82.78;101837.56;4929407;29;20054;-84
2023/02/09 07:06:12;;;;;;;0.00;0.00;;;;;;;2.86;82.78;101849.31;4928242;29;20072;-83
2023/02/09 07:08:43;;;;;;;0.00;0.00;;;;;;;2.79;82.85;101834.84;4930049;29;20024;-83
2023/02/09 07:11:29;;;;;;;;;;;;;;;;;;;;;
2023/02/09 07:13:55;;;;;;;0.10;0.10;;;;;;;2.88;83.12;101841.88;4945515;28;20115;-83
2023/02/09 07:16:42;;;;;;;0.00;0.00;;;;;;;2.70;82.90;101806.19;4925006;29;20023;-85
2023/02/09 07:19:27;;;;;;;0.00;0.00;;;;;;;2.87;83.57;101817.72;4929549;28;20039;-81
2023/02/09 07:22:03;;;;;;;;;;;;;;;;;;;;;
2023/02/09 07:24:42;;;;;;;0.00;0.00;;;;;;;3.13;85.00;101844.38;4942925;28;20043;-83
2023/02/09 07:27:32;;;;;;;0.00;0.00;;;;;;;3.02;85.36;101820.47;4926636;29;20031;-83
2023/02/09 07:29:58;;;;;;;0.05;0.05;;;;;;;3.11;85.71;101836.47;4931701;29;20048;-84
2023/02/09 07:35:29;;;;;;;0.00;0.00;;;;;;;3.29;86.60;101855.03;4932844;28;20141;-84
2023/02/09 07:37:55;;;;;;;0.00;0.00;;;;;;;3.32;87.31;101849.25;4913688;29;20016;-80
2023/02/09 07:40:23;;;;;;;0.00;0.00;;;;;;;3.22;88.56;101826.22;4924115;29;20035;-81
2023/02/09 07:42:52;;;;;;;0.00;0.00;;;;;;;3.28;88.41;101829.03;4918838;29;20109;-82
2023/02/09 07:45:34;;;;;;;0.00;0.00;;;;;;;3.43;89.44;101844.44;4920455;29;20035;-80
2023/02/09 07:48:05;;;;;;;0.00;0.00;;;;;;;3.52;89.57;101847.91;4915890;29;20469;-80
2023/02/09 07:50:43;;;;;;;;;;;;;;;;;;;;;
2023/02/09 07:57:01;;;;;;;0.00;0.00;;;;;;;3.92;91.32;101873.69;4930054;29;20043;-78
2023/02/09 07:59:41;;;;;;;0.00;0.00;;;;;;;3.76;92.10;101836.81;4831280;29;20188;-79
2023/02/09 08:02:32;;;;;;;0.00;0.00;;;;;;;4.02;91.54;101871.53;4827857;29;20071;-78
2023/02/09 08:05:23;;;;;;;;;;;;;;;;;;;;;
2023/02/09 08:10:57;;;;;;;0.00;0.00;;;;;;;4.11;92.58;101857.91;4834212;29;20050;-75
2023/02/09 08:13:40;;;;;;;;;;;;;;;;;;;;;
2023/02/09 08:16:26;;;;;;;0.00;0.00;;;;;;;4.25;92.10;101864.34;4900242;29;20463;-75
2023/02/09 08:19:10;;;;;;;0.00;0.00;;;;;;;4.39;92.26;101892.44;4921776;29;20118;-76
2023/02/09 08:21:49;;;;;;;0.00;0.00;;;;;;;4.48;92.04;101910.25;4938205;29;20032;-74
2023/02/09 08:24:19;;;;;;;0.00;0.00;;;;;;;4.49;91.80;101907.34;4913761;29;20034;-76
2023/02/09 08:26:45;;;;;;;0.00;0.00;;;;;;;4.53;92.15;101907.84;4926005;29;20450;-76
2023/02/09 08:29:13;;;;;;;0.10;0.10;;;;;;;4.60;92.55;101922.31;4939909;28;20052;-76
2023/02/09 08:31:39;;;;;;;0.00;0.00;;;;;;;4.47;92.37;101895.06;4940639;29;20024;-76
2023/02/09 08:34:04;;;;;;;0.00;0.00;;;;;;;4.69;91.68;101926.56;4925502;29;20058;-75
2023/02/09 08:36:30;;;;;;;0.00;0.00;;;;;;;4.77;92.33;101932.91;4925375;29;20028;-75
2023/02/09 08:38:58;;;;;;;0.00;0.00;;;;;;;4.69;91.61;101907.59;4910716;29;20750;-75
2023/02/09 08:41:26;;;;;;;0.00;0.00;;;;;;;4.98;91.78;101934.81;4919677;29;20043;-74
2023/02/09 08:44:19;;;;;;;0.00;0.00;;;;;;;5.02;90.99;101918.00;4893166;29;20466;-75
2023/02/09 08:47:26;;;;;;;;;;;;;;;;;;;;;
2023/02/09 08:50:02;;;;;;;0.00;0.00;;;;;;;5.21;89.91;101934.63;4924069;29;20589;-75
2023/02/09 08:52:37;;;;;;;0.00;0.00;;;;;;;5.27;90.31;101933.88;4938240;29;20039;-76
2023/02/09 08:55:33;;;;;;;0.00;0.00;;;;;;;5.44;90.08;101955.31;4922159;29;20043;-76
2023/02/09 08:58:06;;;;;;;0.00;0.00;;;;;;;5.55;90.15;101952.09;4913634;29;20672;-75
2023/02/09 09:00:49;;;;;;;;;;;;;;;;;;;;;
2023/02/09 09:03:28;;;;;;;0.00;0.00;;;;;;;5.58;89.54;101935.41;4942549;29;20105;-75
2023/02/09 09:06:08;;;;;;;0.10;0.10;;;;;;;5.71;89.51;101930.09;4926685;29;20059;-77
2023/02/09 09:08:37;;;;;;;0.05;0.05;;;;;;;5.94;88.56;101945.28;4931016;29;20035;-76
2023/02/09 09:11:14;;;;;;;;;;;;;;;;;;;;;
2023/02/09 09:13:40;;;;;;;0.00;0.00;;;;;;;6.21;88.15;101935.47;4942541;29;20131;-77
2023/02/09 09:16:06;;;;;;;0.00;0.00;;;;;;;6.43;87.23;101960.69;4923423;29;20012;-77
2023/02/09 09:18:32;;;;;;;0.00;0.00;;;;;;;6.57;86.63;101952.59;4920082;29;20158;-77
2023/02/09 09:20:58;;;;;;;0.00;0.00;;;;;;;6.72;86.63;101947.84;4916190;29;20028;-76
2023/02/09 09:23:23;;;;;;;0.00;0.00;;;;;;;6.87;84.98;101949.59;4900997;29;20341;-77
2023/02/09 09:25:49;;;;;;;0.00;0.00;;;;;;;6.97;84.75;101942.72;4930622;29;20023;-78
2023/02/09 09:28:15;;;;;;;0.00;0.00;;;;;;;7.20;84.16;101962.44;4920022;29;20279;-76
2023/02/09 09:30:40;;;;;;;0.00;0.00;;;;;;;7.24;83.84;101955.53;4906687;29;20028;-76
2023/02/09 09:33:06;;;;;;;0.10;0.10;;;;;;;7.35;83.80;101949.50;4922243;29;20032;-76
2023/02/09 09:35:31;;;;;;;0.00;0.00;;;;;;;7.60;83.32;101938.81;4922301;29;20393;-76
2023/02/09 09:37:57;;;;;;;0.00;0.00;;;;;;;8.03;82.19;101953.88;4921695;29;20060;-76
2023/02/09 09:40:49;;;;;;;0.00;0.00;;;;;;;8.37;80.52;101968.31;4922689;29;20115;-78
2023/02/09 09:43:26;;;;;;;0.00;0.00;;;;;;;8.35;79.66;101973.09;4918122;29;20541;-75
2023/02/09 09:45:55;;;;;;;0.00;0.00;;;;;;;8.36;78.88;101975.63;4906945;29;20028;-78
2023/02/09 09:48:37;;;;;;;;;;;;;;;;;;;;;
2023/02/09 09:51:35;;;;;;;0.00;0.00;;;;;;;8.48;77.89;101981.28;4938902;29;20123;-76
2023/02/09 09:54:06;;;;;;;0.00;0.00;;;;;;;8.28;77.18;101972.28;4938948;29;20043;-77
2023/02/09 09:56:32;;;;;;;0.00;0.00;;;;;;;8.04;78.21;101989.13;4917506;29;20055;-77
2023/02/09 09:59:00;;;;;;;0.00;0.00;;;;;;;7.80;79.19;101976.97;4921434;29;20028;-79
2023/02/09 10:01:31;;;;;;;0.00;0.00;;;;;;;8.08;79.42;101992.25;4938337;29;20028;-77
2023/02/09 10:04:05;;;;;;;0.08;0.08;;;;;;;8.24;78.68;101992.88;4920340;29;20090;-77
2023/02/09 10:06:31;;;;;;;0.10;0.10;;;;;;;8.47;78.40;102004.16;4939023;29;20047;-76
2023/02/09 10:09:06;;;;;;;0.00;0.00;;;;;;;8.61;78.34;101993.22;4924308;29;20051;-77
2023/02/09 10:11:45;;;;;;;0.00;0.00;;;;;;;8.76;77.36;102018.34;4938024;28;20644;-76
2023/02/09 10:14:10;;;;;;;0.00;0.00;;;;;;;8.81;77.59;102013.06;4920410;29;20553;-76
2023/02/09 10:16:39;;;;;;;0.00;0.00;;;;;;;8.89;76.94;102012.84;4909026;29;20056;-78
2023/02/09 10:19:20;;;;;;;0.00;0.00;;;;;;;8.85;76.51;102006.16;4918502;29;20075;-76
2023/02/09 10:21:47;;;;;;;0.00;0.00;;;;;;;8.94;76.65;102014.09;4935591;29;20044;-76
2023/02/09 10:24:24;;;;;;;0.00;0.00;;;;;;;9.21;76.41;102026.56;4929947;29;20031;-76
2023/02/09 10:27:03;;;;;;;0.00;0.00;;;;;;;9.55;75.45;102016.28;4923817;29;20043;-77
2023/02/09 10:29:31;;;;;;;0.00;0.00;;;;;;;9.98;74.59;102019.34;4938186;29;20003;-77
2023/02/09 10:32:19;;;;;;;0.00;0.00;;;;;;;10.31;73.87;102025.34;4893059;29;20040;-77
2023/02/09 10:35:02;;;;;;;0.00;0.00;;;;;;;10.60;72.29;102016.66;4917092;29;20062;-77
2023/02/09 10:37:36;;;;;;;0.00;0.00;;;;;;;10.94;71.68;102034.38;4916690;29;20031;-76
2023/02/09 10:40:21;;;;;;;0.00;0.00;;;;;;;11.33;70.64;102010.28;4922223;29;20032;-77
2023/02/09 10:42:56;;;;;;;0.05;0.05;;;;;;;11.88;68.94;102033.91;4937645;29;20371;-77
2023/02/09 10:45:31;;;;;;;0.00;0.00;;;;;;;12.15;68.78;102035.38;4918038;29;20032;-77
2023/02/09 10:48:16;;;;;;;0.00;0.00;;;;;;;12.70;68.36;102039.66;4916833;29;20028;-77
2023/02/09 10:51:14;;;;;;;0.00;0.00;;;;;;;13.47;65.96;102037.69;4918571;29;20075;-77
2023/02/09 10:53:59;;;;;;;0.00;0.00;;;;;;;13.47;65.68;102043.19;4921229;29;20059;-77
2023/02/09 10:56:35;;;;;;;0.00;0.00;;;;;;;13.00;66.31;102061.44;4922767;29;20039;-77
2023/02/09 10:59:14;;;;;;;0.00;0.00;;;;;;;12.49;68.02;102066.63;4915398;29;20525;-76
2023/02/09 11:01:42;;;;;;;0.00;0.00;;;;;;;11.88;69.12;102049.50;4916991;29;20035;-78
2023/02/09 11:04:19;;;;;;;0.00;0.00;;;;;;;11.68;71.07;102061.63;4911207;29;20028;-77
2023/02/09 11:06:57;;;;;;;0.10;0.10;;;;;;;11.68;70.85;102067.09;4919889;29;20046;-76
2023/02/09 11:09:35;;;;;;;0.00;0.00;;;;;;;11.58;71.77;102050.38;4912908;29;20040;-76
2023/02/09 11:12:01;;;;;;;0.08;0.08;;;;;;;11.90;70.97;102068.44;4931803;29;20137;-75
2023/02/09 11:14:27;;;;;;;0.00;0.00;;;;;;;12.37;70.46;102069.38;4906832;29;20058;-75
2023/02/09 11:16:54;;;;;;;0.00;0.00;;;;;;;13.30;70.30;102076.88;4941814;29;20019;-76
2023/02/09 11:19:24;;;;;;;0.00;0.00;;;;;;;15.06;67.26;102064.94;4920401;29;20458;-77
2023/02/09 11:22:13;;;;;;;0.00;0.00;;;;;;;17.24;61.23;102074.75;4919242;29;20020;-76
2023/02/09 11:24:57;;;;;;;0.00;0.00;;;;;;;17.51;57.98;102069.03;4940106;28;20079;-77
2023/02/09 11:28:10;;;;;;;0.00;0.00;;;;;;;17.81;56.32;102072.94;4922120;29;20590;-75
2023/02/09 11:31:12;;;;;;;0.00;0.00;;;;;;;16.99;57.13;102061.66;4848151;29;20042;-76
2023/02/09 11:33:48;;;;;;;0.00;0.00;;;;;;;16.29;58.26;102067.28;4847258;29;20110;-76
2023/02/09 11:36:32;;;;;;;0.00;0.00;;;;;;;15.62;58.95;102063.91;4916451;29;20494;-76
2023/02/09 11:39:09;;;;;;;0.00;0.00;;;;;;;15.01;59.89;102062.13;4919559;29;20036;-76
2023/02/09 11:44:45;;;;;;;0.00;0.00;;;;;;;15.82;60.80;102077.94;4946071;29;20169;-76
2023/02/09 11:47:20;;;;;;;0.00;0.00;;;;;;;18.42;56.87;102076.84;4945874;28;20026;-77
2023/02/09 11:49:52;;;;;;;0.00;0.00;;;;;;;20.81;49.82;102067.63;4906664;29;20085;-75
2023/02/09 11:52:28;;;;;;;0.00;0.00;;;;;;;22.03;47.06;102069.03;4940341;29;20035;-77
2023/02/09 11:54:59;;;;;;;0.00;0.00;;;;;;;22.88;42.11;102060.50;4924176;29;20027;-76
2023/02/09 11:57:53;;;;;;;0.00;0.00;;;;;;;23.41;40.03;102051.56;4924724;29;20098;-76
2023/02/09 12:00:25;;;;;;;0.00;0.00;;;;;;;22.08;41.43;102050.25;4911592;29;20095;-76
2023/02/09 12:03:12;;;;;;;0.00;0.00;;;;;;;21.95;42.05;102051.88;4922433;29;20039;-76
2023/02/09 12:05:46;;;;;;;0.00;0.00;;;;;;;23.24;41.21;102059.78;4941157;29;20035;-76
2023/02/09 12:08:42;;;;;;;0.00;0.00;;;;;;;23.89;39.67;102069.75;4942348;29;20026;-75
2023/02/09 12:11:26;;;;;;;0.00;0.00;;;;;;;23.24;39.63;102068.97;4941342;29;20038;-76
2023/02/09 12:13:56;;;;;;;0.00;0.00;;;;;;;24.69;38.04;102060.69;4916640;29;20092;-76
2023/02/09 12:16:33;;;;;;;0.00;0.00;;;;;;;25.32;35.45;102066.13;4917172;29;20031;-75
2023/02/09 12:18:58;;;;;;;0.00;0.00;;;;;;;23.56;36.32;102049.56;4918179;29;20019;-76
2023/02/09 12:21:41;;;;;;;;;;;;;;;;;;;;;
2023/02/09 12:24:33;;;;;;;0.00;0.00;;;;;;;20.43;41.23;102050.78;4935376;29;20095;-77
2023/02/09 12:27:01;;;;;;;0.00;0.00;;;;;;;20.13;42.10;102063.84;4927945;29;20032;-75
2023/02/09 12:29:40;;;;;;;0.00;0.00;;;;;;;19.45;43.09;102065.41;4910119;29;20063;-75
2023/02/09 12:32:06;;;;;;;0.00;0.00;;;;;;;18.97;43.96;102066.75;4922078;29;20020;-74
2023/02/09 12:34:48;;;;;;;0.00;0.00;;;;;;;18.43;45.00;102050.81;4923790;29;20047;-75
2023/02/09 12:37:21;;;;;;;0.00;0.00;;;;;;;18.16;46.15;102060.25;4911932;29;20020;-78
2023/02/09 12:40:08;;;;;;;0.00;0.00;;;;;;;17.63;46.19;102047.47;4913968;29;20036;-75
2023/02/09 12:42:41;;;;;;;0.00;0.00;;;;;;;17.57;47.01;102065.16;4903687;29;20092;-77
2023/02/09 12:45:41;;;;;;;0.00;0.00;;;;;;;17.89;47.33;102061.34;4938848;29;20027;-77
2023/02/09 13:31:48;;;;;;;;;;;;;;;;;;;;;
2023/02/09 13:41:57;;;;;;;0.00;0.00;;;;;;;13.54;55.13;102043.88;4581785;31;20135;-76
2023/02/09 13:44:35;;;;;;;0.00;0.00;;;;;;;13.47;55.08;102051.41;4646231;30;20057;-78
2023/02/09 13:47:05;;;;;;;0.00;0.00;;;;;;;13.44;55.16;102067.31;4834135;29;20091;-76
2023/02/09 13:49:41;;;;;;;0.00;0.00;;;;;;;13.20;54.80;102054.69;4938240;29;20063;-77
2023/02/09 13:52:21;;;;;;;0.00;0.00;;;;;;;13.36;55.24;102069.59;4914603;29;20036;-78
2023/02/09 13:54:46;;;;;;;0.00;0.00;;;;;;;13.58;55.15;102047.75;4919945;29;20035;-78
2023/02/09 13:57:29;;;;;;;0.00;0.00;;;;;;;13.88;54.45;102054.91;4922429;28;20375;-79
2023/02/09 14:00:09;;;;;;;0.00;0.00;;;;;;;14.01;54.44;102065.56;4927437;29;20031;-77
2023/02/09 14:02:47;;;;;;;0.00;0.00;;;;;;;13.76;54.36;102041.22;4930574;29;20039;-77
2023/02/09 14:06:02;;;;;;;0.00;0.00;;;;;;;13.47;54.38;102021.19;4924762;29;20127;-77
2023/02/09 14:08:34;;;;;;;0.00;0.00;;;;;;;13.37;55.15;102041.88;4920989;29;20565;-78
2023/02/09 14:11:45;;;;;;;0.00;0.00;;;;;;;13.33;54.89;102048.09;4920738;29;20008;-77
2023/02/09 14:17:38;;;;;;;0.00;0.00;;;;;;;13.09;55.39;102042.69;4935192;29;20127;-77
2023/02/09 14:20:21;;;;;;;0.00;0.00;;;;;;;13.25;55.51;102052.06;4924174;29;20063;-77
2023/02/09 14:22:56;;;;;;;0.00;0.00;;;;;;;13.40;54.79;102046.06;4938656;29;20035;-77
2023/02/09 14:25:24;;;;;;;0.00;0.00;;;;;;;13.65;53.92;102055.88;4921895;29;20020;-76
2023/02/09 14:27:50;;;;;;;0.00;0.00;;;;;;;13.86;53.76;102048.84;4921570;29;20098;-77
2023/02/09 14:30:16;;;;;;;0.00;0.00;;;;;;;14.21;53.28;102059.59;4923152;29;20052;-77
2023/02/09 14:32:50;;;;;;;0.00;0.00;;;;;;;14.29;53.12;102041.81;4922671;29;20032;-77
2023/02/09 14:35:19;;;;;;;0.00;0.00;;;;;;;14.44;52.30;102042.06;4921857;29;20023;-77
2023/02/09 14:37:45;;;;;;;0.00;0.00;;;;;;;14.62;52.11;102048.41;4917883;29;20126;-77
2023/02/09 14:40:28;;;;;;;0.00;0.00;;;;;;;14.84;52.02;102052.00;4920593;28;20391;-78
2023/02/09 14:43:20;;;;;;;0.00;0.00;;;;;;;14.91;51.60;102048.22;4918663;28;20046;-77
2023/02/09 14:45:57;;;;;;;0.00;0.00;;;;;;;14.93;51.22;102048.81;4912103;29;20040;-77
2023/02/09 14:48:31;;;;;;;0.00;0.00;;;;;;;14.87;50.91;102031.38;4938469;29;20048;-76
2023/02/09 14:51:18;;;;;;;;;;;;;;;14.81;50.67;102055.25;4925604;29;20028;-75
2023/02/09 14:53:45;;;;;;;0.00;0.00;;;;;;;14.63;51.19;102055.53;4924682;29;19935;-76
2023/02/09 14:56:37;;;;;;;0.00;0.00;;;;;;;14.69;51.25;102050.94;4920226;29;20031;-75
2023/02/09 14:59:17;;;;;;;0.00;0.00;;;;;;;14.62;51.31;102048.41;4893758;29;20140;-76
2023/02/09 15:01:45;;;;;;;0.00;0.00;;;;;;;14.69;51.57;102049.03;4938408;29;20070;-75
2023/02/09 15:04:11;;;;;;;0.00;0.00;;;;;;;14.74;50.98;102046.34;4923167;29;20046;-76
2023/02/09 15:06:37;;;;;;;0.00;0.00;;;;;;;14.81;51.18;102066.28;4916410;29;20012;-75
2023/02/09 15:09:07;;;;;;;0.00;0.00;;;;;;;14.60;51.19;102050.53;4937170;29;20034;-78
2023/02/09 15:14:29;;;;;;;0.00;0.00;;;;;;;14.30;51.64;102084.75;4927445;29;20062;-78
2023/02/09 15:16:55;;;;;;;0.00;0.00;;;;;;;14.03;51.96;102079.94;4912569;29;20550;-77
2023/02/09 15:19:21;;;;;;;0.00;0.00;;;;;;;13.85;52.56;102083.72;4909098;29;20024;-76
2023/02/09 15:21:47;;;;;;;0.00;0.00;;;;;;;13.60;52.48;102087.66;4915353;29;20048;-75
2023/02/09 15:24:17;;;;;;;0.00;0.00;;;;;;;13.42;53.02;102085.13;4923515;29;20024;-76
2023/02/09 15:26:43;;;;;;;0.00;0.00;;;;;;;13.30;53.05;102093.38;4905347;29;20035;-75
2023/02/09 15:29:13;;;;;;;0.00;0.00;;;;;;;13.06;53.50;102082.44;4924717;29;20040;-76
2023/02/09 15:31:39;;;;;;;0.00;0.00;;;;;;;12.88;53.67;102080.69;4912624;29;20076;-76
2023/02/09 15:34:05;;;;;;;0.00;0.00;;;;;;;12.71;53.77;102071.53;4923920;29;20726;-76
2023/02/09 15:36:34;;;;;;;0.00;0.00;;;;;;;12.62;54.31;102070.22;4920338;29;20032;-78
2023/02/09 15:39:00;;;;;;;0.00;0.00;;;;;;;12.52;54.56;102092.78;4895707;29;20111;-76
2023/02/09 15:49:47;;;;;;;0.00;0.00;;;;;;;11.72;55.43;102083.88;4919254;29;20056;-76
2023/02/09 15:52:16;;;;;;;0.00;0.00;;;;;;;11.59;56.39;102106.81;4917799;29;20020;-76
2023/02/09 15:54:43;;;;;;;0.00;0.00;;;;;;;11.31;56.18;102097.28;4914371;29;20024;-76
2023/02/09 15:57:13;;;;;;;0.00;0.00;;;;;;;11.20;57.02;102103.56;4914529;29;20474;-76
2023/02/09 15:59:39;;;;;;;0.00;0.00;;;;;;;11.07;57.37;102106.44;4914711;29;20403;-77
2023/02/09 16:02:15;;;;;;;0.00;0.00;;;;;;;10.93;58.23;102112.06;4921990;29;20039;-76
2023/02/09 16:04:42;;;;;;;0.00;0.00;;;;;;;10.68;59.05;102100.34;4924576;29;20041;-77
2023/02/09 16:07:14;;;;;;;0.00;0.00;;;;;;;10.61;58.86;102090.28;4911461;29;20032;-76
2023/02/09 16:09:42;;;;;;;0.05;0.05;;;;;;;10.79;58.84;102116.00;4919934;29;20024;-76
2023/02/09 16:12:12;;;;;;;0.00;0.00;;;;;;;10.76;58.92;102095.41;4919513;29;20036;-78
2023/02/09 16:14:37;;;;;;;0.00;0.00;;;;;;;10.82;59.10;102107.34;4921069;29;20336;-79
2023/02/09 16:17:06;;;;;;;0.00;0.00;;;;;;;10.63;59.45;102099.13;4919042;29;20040;-77
2023/02/09 16:19:32;;;;;;;0.00;0.00;;;;;;;10.48;59.80;102101.34;4923903;29;20032;-77
2023/02/09 16:22:04;;;;;;;0.00;0.00;;;;;;;10.43;59.96;102126.66;4897793;29;20122;-77